Time;durP1;ratioP1;P1;durP2;ratioP2;P2;SDS_P1;SDS_P2;PMS_P1;PMS_P2;Temp;Humidity;BMP_temperature;BMP_pressure;BME280_temperature;BME280_humidity;BME280_pressure;Samples;Min_cycle;Max_cycle;Signal;HPM_P1;HPM_P2
2022/11/06 00:00:38;;;;;;;107.40;66.03;;;;;;;12.97;81.32;99187.75;5091830;28;20198;-70
2022/11/06 00:03:05;;;;;;;114.83;68.97;;;;;;;12.94;80.87;99191.69;5092237;28;20199;-70
2022/11/06 00:08:26;;;;;;;116.30;66.03;;;;;;;12.72;82.18;99171.78;5091563;28;20649;-70
2022/11/06 00:10:53;;;;;;;111.27;64.60;;;;;;;12.78;82.44;99165.59;5092251;28;20243;-70
2022/11/06 00:13:20;;;;;;;115.77;65.47;;;;;;;12.83;82.23;99173.72;5101075;28;20198;-70
2022/11/06 00:15:46;;;;;;;112.73;66.20;;;;;;;12.83;81.70;99184.38;5107430;28;20218;-70
2022/11/06 00:18:13;;;;;;;118.07;66.30;;;;;;;12.83;81.93;99173.72;5091908;28;20382;-69
2022/11/06 00:20:40;;;;;;;102.87;63.97;;;;;;;12.90;82.26;99176.38;5092513;28;20612;-69
2022/11/06 00:23:07;;;;;;;109.47;64.63;;;;;;;12.96;81.86;99173.63;5091962;28;20662;-70
2022/11/06 00:25:35;;;;;;;103.07;63.30;;;;;;;13.04;82.07;99178.72;5091491;28;20643;-70
2022/11/06 00:28:02;;;;;;;109.10;63.53;;;;;;;13.05;81.23;99177.69;5091983;28;20187;-71
2022/11/06 00:30:28;;;;;;;108.37;63.60;;;;;;;12.96;81.72;99168.31;5091382;28;20192;-70
2022/11/06 00:32:55;;;;;;;111.40;65.17;;;;;;;12.88;81.95;99170.41;5091299;28;20662;-70
2022/11/06 00:35:22;;;;;;;108.73;63.53;;;;;;;12.79;82.73;99167.22;5091658;28;20582;-70
2022/11/06 00:37:48;;;;;;;106.80;65.07;;;;;;;12.83;82.67;99160.41;5091287;28;20572;-70
2022/11/06 00:40:15;;;;;;;109.00;64.20;;;;;;;12.86;82.78;99167.97;5091644;28;20200;-70
2022/11/06 00:42:43;;;;;;;109.60;63.43;;;;;;;12.85;82.71;99161.00;5094596;28;20564;-69
2022/11/06 00:45:11;;;;;;;118.83;65.93;;;;;;;12.74;82.47;99156.38;5095426;28;20251;-69
2022/11/06 00:47:37;;;;;;;110.77;65.27;;;;;;;12.68;82.62;99167.09;5094796;28;20618;-70
2022/11/06 00:50:05;;;;;;;111.70;62.40;;;;;;;12.63;83.49;99167.78;5095119;28;20247;-70
2022/11/06 00:52:31;;;;;;;106.23;62.70;;;;;;;12.57;83.15;99167.81;5095220;28;20187;-68
2022/11/06 00:54:58;;;;;;;107.43;63.30;;;;;;;12.58;83.38;99164.13;5094585;28;20222;-68
2022/11/06 00:57:25;;;;;;;106.23;61.07;;;;;;;12.55;82.95;99165.38;5094891;28;20639;-69
2022/11/06 00:59:53;;;;;;;109.10;61.77;;;;;;;12.51;83.40;99177.50;5094937;28;20625;-69
2022/11/06 01:02:19;;;;;;;114.87;61.67;;;;;;;12.55;83.25;99172.53;5094502;28;20196;-69
2022/11/06 01:04:46;;;;;;;104.70;61.03;;;;;;;12.53;82.97;99178.06;5095307;28;20187;-69
2022/11/06 01:07:13;;;;;;;102.30;60.83;;;;;;;12.52;82.97;99181.78;5094392;28;20207;-71
2022/11/06 01:09:39;;;;;;;100.30;60.70;;;;;;;12.48;82.55;99179.75;5094374;28;20188;-69
2022/11/06 01:12:07;;;;;;;99.30;59.00;;;;;;;12.44;82.80;99179.38;5094785;28;20246;-68
2022/11/06 01:14:33;;;;;;;96.63;57.30;;;;;;;12.40;82.92;99180.84;5114223;28;20195;-69
2022/11/06 01:17:01;;;;;;;104.03;58.17;;;;;;;12.41;82.57;99179.81;5099515;28;20224;-69
2022/11/06 01:19:28;;;;;;;102.87;59.40;;;;;;;12.41;82.76;99174.47;5094541;28;20247;-68
2022/11/06 01:21:55;;;;;;;101.33;57.23;;;;;;;12.35;82.61;99183.34;5094164;28;20751;-68
2022/11/06 01:24:23;;;;;;;106.07;59.47;;;;;;;12.32;82.86;99186.41;5094603;28;20652;-69
2022/11/06 01:26:50;;;;;;;104.37;60.00;;;;;;;12.19;83.08;99178.53;5094421;28;20651;-69
2022/11/06 01:29:18;;;;;;;98.77;59.93;;;;;;;12.20;82.88;99193.44;5094263;28;20247;-69
2022/11/06 01:31:48;;;;;;;103.30;60.77;;;;;;;12.15;83.50;99185.28;5093994;28;20194;-68
2022/11/06 01:34:17;;;;;;;107.37;59.10;;;;;;;12.06;83.43;99181.25;5094139;28;20230;-68
2022/11/06 01:36:45;;;;;;;95.73;58.37;;;;;;;12.05;84.25;99178.81;5093816;28;20332;-68
2022/11/06 01:39:14;;;;;;;97.93;56.70;;;;;;;12.05;83.68;99187.59;5093752;28;20284;-69
2022/11/06 01:41:43;;;;;;;102.20;54.73;;;;;;;12.09;83.78;99175.47;5095173;28;20195;-69
2022/11/06 01:44:43;;;;;;;98.50;57.30;;;;;;;12.15;83.55;99169.31;5093649;28;20326;-69
2022/11/06 01:47:23;;;;;;;99.13;56.17;;;;;;;12.11;83.19;99173.44;5094197;28;20195;-69
2022/11/06 01:49:54;;;;;;;98.27;56.97;;;;;;;12.15;83.19;99171.16;5093700;28;20183;-69
2022/11/06 01:52:23;;;;;;;101.47;57.53;;;;;;;12.17;82.81;99183.22;5094656;28;20244;-70
2022/11/06 01:54:54;;;;;;;90.63;55.10;;;;;;;12.21;82.62;99178.31;5093455;28;20543;-69
2022/11/06 01:57:21;;;;;;;94.23;55.40;;;;;;;12.21;82.47;99178.31;5093848;28;20572;-71
2022/11/06 01:59:51;;;;;;;95.73;57.23;;;;;;;12.21;82.72;99183.63;5093359;28;20199;-70
2022/11/06 02:02:19;;;;;;;106.10;58.10;;;;;;;12.23;82.75;99185.03;5093636;28;20244;-69
2022/11/06 02:04:48;;;;;;;97.33;57.07;;;;;;;12.18;82.66;99184.06;5093526;28;20206;-69
2022/11/06 02:07:17;;;;;;;105.07;57.97;;;;;;;12.13;83.06;99181.22;5093345;28;20449;-69
2022/11/06 02:09:44;;;;;;;97.13;56.03;;;;;;;12.06;82.98;99173.28;5093487;28;20246;-70
2022/11/06 02:12:21;;;;;;;92.03;56.00;;;;;;;12.10;83.34;99171.00;5093432;28;20548;-70
2022/11/06 02:15:03;;;;;;;101.13;57.43;;;;;;;12.15;83.35;99174.66;5093144;28;20180;-70
2022/11/06 02:17:52;;;;;;;110.83;58.10;;;;;;;12.18;82.74;99168.91;5112236;28;20226;-70
2022/11/06 02:20:27;;;;;;;96.30;55.90;;;;;;;12.17;82.91;99167.25;5113757;28;20238;-70
2022/11/06 02:23:30;;;;;;;98.60;56.90;;;;;;;12.16;83.02;99176.28;5112653;28;20222;-70
2022/11/06 02:26:08;;;;;;;91.73;54.40;;;;;;;12.19;82.45;99175.03;5110469;28;20254;-70
2022/11/06 02:28:41;;;;;;;98.40;57.57;;;;;;;12.15;82.16;99185.28;5113262;28;20186;-70
2022/11/06 02:31:12;;;;;;;91.23;55.40;;;;;;;12.16;83.18;99181.59;5093541;28;20604;-69
2022/11/06 02:33:47;;;;;;;100.00;56.83;;;;;;;12.11;83.07;99178.75;5093065;28;20194;-70
2022/11/06 02:36:18;;;;;;;91.17;54.63;;;;;;;12.15;83.03;99172.00;5093624;28;20270;-71
2022/11/06 02:38:49;;;;;;;101.00;55.77;;;;;;;12.12;82.79;99175.06;5093544;28;20190;-71
2022/11/06 02:41:19;;;;;;;103.47;56.80;;;;;;;12.13;82.98;99181.22;5093283;28;20532;-71
2022/11/06 02:43:52;;;;;;;92.77;56.33;;;;;;;12.10;83.62;99182.47;5093217;28;20195;-70
2022/11/06 02:46:23;;;;;;;92.97;55.60;;;;;;;12.12;83.28;99180.38;5092951;28;20194;-70
2022/11/06 02:48:56;;;;;;;102.87;56.27;;;;;;;12.12;83.13;99174.28;5093222;28;20186;-70
2022/11/06 02:51:28;;;;;;;99.10;55.67;;;;;;;12.09;82.94;99175.47;5093468;28;20187;-70
2022/11/06 02:53:58;;;;;;;88.60;53.93;;;;;;;12.14;83.26;99178.34;5092441;28;20187;-69
2022/11/06 02:56:29;;;;;;;97.17;55.07;;;;;;;12.14;83.38;99186.34;5092348;28;20742;-70
2022/11/06 02:59:01;;;;;;;98.07;55.13;;;;;;;12.13;83.76;99187.34;5092682;28;20194;-70
2022/11/06 03:01:33;;;;;;;104.27;55.57;;;;;;;12.09;83.68;99180.81;5092428;28;20190;-70
2022/11/06 03:04:05;;;;;;;91.93;53.67;;;;;;;12.05;84.19;99168.94;5092144;28;20217;-70
2022/11/06 03:06:37;;;;;;;90.57;54.10;;;;;;;12.01;83.97;99172.28;5092337;28;20193;-70
2022/11/06 03:09:09;;;;;;;94.40;56.90;;;;;;;12.05;84.09;99189.44;5092205;28;20186;-70
2022/11/06 03:11:38;;;;;;;100.50;56.23;;;;;;;12.00;83.84;99176.78;5093116;28;20187;-70
2022/11/06 03:14:12;;;;;;;92.87;56.57;;;;;;;12.02;84.04;99179.22;5107983;28;20225;-70
2022/11/06 03:16:48;;;;;;;89.70;53.67;;;;;;;11.98;84.72;99200.13;5112440;28;20258;-71
2022/11/06 03:19:25;;;;;;;92.83;54.00;;;;;;;11.99;84.28;99185.78;5112414;28;20721;-70
2022/11/06 03:21:57;;;;;;;94.70;56.47;;;;;;;11.99;83.84;99180.47;5113138;28;20570;-70
2022/11/06 03:24:30;;;;;;;95.50;54.83;;;;;;;11.98;84.46;99170.03;5112398;28;20227;-69
2022/11/06 03:26:59;;;;;;;96.20;55.47;;;;;;;12.01;84.88;99188.25;5098571;28;20196;-69
2022/11/06 03:29:34;;;;;;;107.00;56.70;;;;;;;11.91;84.51;99171.91;5091726;28;20197;-69
2022/11/06 03:32:13;;;;;;;95.00;56.27;;;;;;;11.85;85.49;99186.88;5092022;28;20190;-69
2022/11/06 03:34:44;;;;;;;100.53;55.70;;;;;;;11.88;85.82;99188.31;5092375;28;20243;-69
2022/11/06 03:37:16;;;;;;;96.60;56.23;;;;;;;11.89;86.17;99184.63;5092394;28;20213;-70
2022/11/06 03:39:49;;;;;;;96.80;55.80;;;;;;;11.91;86.00;99183.38;5092698;28;20613;-70
2022/11/06 03:42:21;;;;;;;99.63;60.20;;;;;;;11.90;85.89;99187.06;5091904;28;20190;-69
2022/11/06 03:44:53;;;;;;;112.77;60.80;;;;;;;11.72;85.79;99173.63;5092483;28;20235;-70
2022/11/06 03:47:24;;;;;;;104.30;61.33;;;;;;;11.78;85.63;99188.75;5091873;28;20621;-69
2022/11/06 03:49:55;;;;;;;99.07;58.27;;;;;;;11.75;86.23;99189.16;5092130;28;20197;-70
2022/11/06 03:52:29;;;;;;;97.27;59.43;;;;;;;11.75;86.45;99183.84;5092349;28;20189;-69
2022/11/06 03:55:01;;;;;;;96.53;57.60;;;;;;;11.79;86.42;99169.09;5092327;28;20244;-69
2022/11/06 03:57:31;;;;;;;94.00;55.17;;;;;;;11.82;86.40;99173.16;5091644;28;20209;-69
2022/11/06 04:00:03;;;;;;;86.33;53.87;;;;;;;11.80;86.43;99177.91;5092198;28;20202;-69
2022/11/06 04:02:33;;;;;;;88.17;53.90;;;;;;;11.81;85.89;99172.38;5091735;28;20185;-69
2022/11/06 04:05:05;;;;;;;88.03;54.20;;;;;;;11.75;86.48;99170.53;5091577;28;20685;-69
2022/11/06 04:07:36;;;;;;;87.17;52.67;;;;;;;11.79;86.58;99192.22;5092176;28;20189;-69
2022/11/06 04:15:42;;;;;;;88.47;53.10;;;;;;;11.66;86.33;99193.09;5108824;28;20205;-70
2022/11/06 04:18:12;;;;;;;87.37;51.33;;;;;;;11.68;86.73;99196.34;5096334;28;20285;-70
2022/11/06 04:23:46;;;;;;;82.90;51.67;;;;;;;11.58;85.76;99190.63;5090280;28;20197;-70
2022/11/06 04:26:35;;;;;;;88.50;50.67;;;;;;;11.59;86.21;99189.59;5095514;28;20184;-69
2022/11/06 04:29:12;;;;;;;82.03;50.20;;;;;;;11.52;86.07;99188.00;5095230;28;20649;-69
2022/11/06 04:31:46;;;;;;;81.73;49.47;;;;;;;11.52;86.32;99188.81;5095632;28;20181;-70
2022/11/06 04:34:20;;;;;;;87.57;50.20;;;;;;;11.61;86.42;99192.09;5095916;28;20224;-69
2022/11/06 04:36:51;;;;;;;84.33;51.07;;;;;;;11.64;85.53;99184.50;5095155;28;20207;-69
2022/11/06 04:39:27;;;;;;;85.97;49.10;;;;;;;11.59;85.81;99189.59;5095485;28;20189;-69
2022/11/06 04:42:02;;;;;;;89.97;50.10;;;;;;;11.56;86.25;99184.69;5095486;28;20232;-69
2022/11/06 04:44:33;;;;;;;84.53;50.53;;;;;;;11.64;86.29;99181.84;5094924;28;20239;-70
2022/11/06 04:47:04;;;;;;;80.77;50.27;;;;;;;11.71;86.27;99189.81;5095467;28;20632;-69
2022/11/06 04:49:34;;;;;;;82.60;49.57;;;;;;;11.67;85.87;99192.06;5094811;28;20272;-69
2022/11/06 04:52:04;;;;;;;78.70;48.90;;;;;;;11.64;86.72;99192.47;5094694;28;20719;-69
2022/11/06 04:54:32;;;;;;;94.97;51.27;;;;;;;11.60;87.79;99191.25;5095332;28;20247;-69
2022/11/06 04:57:00;;;;;;;90.37;53.73;;;;;;;11.66;88.17;99205.56;5094727;28;20278;-69
2022/11/06 04:59:27;;;;;;;90.93;53.67;;;;;;;11.64;88.81;99197.78;5094430;28;20665;-70
2022/11/06 05:01:53;;;;;;;88.10;51.47;;;;;;;11.71;88.54;99198.59;5094793;28;20189;-69
2022/11/06 05:04:22;;;;;;;87.17;52.77;;;;;;;11.81;88.48;99200.81;5094743;28;20208;-70
2022/11/06 05:06:49;;;;;;;93.03;54.97;;;;;;;11.83;87.94;99202.25;5094287;28;20198;-70
2022/11/06 05:09:16;;;;;;;86.57;53.10;;;;;;;11.83;88.06;99196.91;5094649;28;20258;-70
2022/11/06 05:11:42;;;;;;;89.57;54.30;;;;;;;11.90;87.40;99196.88;5094490;28;20192;-69
2022/11/06 05:14:09;;;;;;;88.90;53.73;;;;;;;11.88;87.56;99205.06;5110583;28;20257;-69
2022/11/06 05:16:36;;;;;;;96.40;54.60;;;;;;;11.88;88.02;99205.06;5103013;28;20268;-69
2022/11/06 05:19:03;;;;;;;88.70;53.77;;;;;;;11.87;87.78;99203.44;5094634;28;20245;-69
2022/11/06 05:24:15;;;;;;;98.73;54.93;;;;;;;11.97;87.48;99227.75;5094723;28;20176;-69
2022/11/06 05:26:42;;;;;;;90.33;54.90;;;;;;;11.89;87.27;99227.19;5093633;28;20263;-69
2022/11/06 05:29:08;;;;;;;91.07;56.17;;;;;;;11.85;87.85;99226.81;5093860;28;20188;-69
2022/11/06 05:31:35;;;;;;;92.37;54.67;;;;;;;11.79;88.40;99230.28;5093587;28;20684;-70
2022/11/06 05:34:02;;;;;;;93.40;54.90;;;;;;;11.81;88.50;99225.59;5094103;28;20258;-70
2022/11/06 05:36:28;;;;;;;91.60;57.30;;;;;;;11.83;88.33;99234.16;5094175;28;20216;-70
2022/11/06 05:38:56;;;;;;;100.03;57.40;;;;;;;11.83;88.34;99231.50;5093721;28;20243;-70
2022/11/06 05:41:23;;;;;;;89.47;55.50;;;;;;;11.83;88.34;99233.34;5094105;28;20192;-70
2022/11/06 05:43:50;;;;;;;97.63;56.13;;;;;;;11.77;88.73;99235.03;5093559;28;20197;-70
2022/11/06 05:46:17;;;;;;;88.50;54.27;;;;;;;11.68;89.31;99235.47;5094066;28;20577;-70
2022/11/06 05:48:43;;;;;;;96.77;55.77;;;;;;;11.68;89.00;99232.78;5094701;28;20226;-70
2022/11/06 05:51:11;;;;;;;97.10;53.80;;;;;;;11.76;89.29;99237.88;5093857;28;20220;-68
2022/11/06 05:53:38;;;;;;;104.43;56.93;;;;;;;11.77;89.05;99242.19;5093573;28;20196;-69
2022/11/06 05:56:07;;;;;;;90.73;54.37;;;;;;;11.80;89.68;99255.06;5093558;28;20226;-69
2022/11/06 05:58:34;;;;;;;101.87;54.33;;;;;;;11.85;88.99;99264.06;5093850;28;20193;-71
2022/11/06 06:01:01;;;;;;;84.13;52.67;;;;;;;11.93;89.31;99266.50;5093306;28;20190;-71
2022/11/06 06:03:28;;;;;;;95.87;54.37;;;;;;;11.97;88.67;99264.22;5094542;28;20193;-69
2022/11/06 06:05:55;;;;;;;89.07;53.63;;;;;;;12.05;88.80;99264.78;5092945;28;20738;-70
2022/11/06 06:08:21;;;;;;;82.13;52.33;;;;;;;12.11;88.02;99274.63;5092884;28;20804;-70
2022/11/06 06:10:48;;;;;;;86.00;53.40;;;;;;;12.11;87.16;99284.44;5090577;28;20261;-72
2022/11/06 06:13:17;;;;;;;89.80;53.03;;;;;;;12.08;87.60;99291.00;5102728;28;20198;-71
2022/11/06 06:15:44;;;;;;;86.67;51.40;;;;;;;12.09;87.28;99291.81;5102182;28;20279;-68
2022/11/06 06:18:11;;;;;;;90.87;50.40;;;;;;;12.09;87.23;99287.31;5114375;28;20233;-69
2022/11/06 06:20:38;;;;;;;88.97;51.47;;;;;;;12.17;87.50;99289.72;5113392;28;20289;-72
2022/11/06 06:23:04;;;;;;;103.97;52.93;;;;;;;12.19;87.02;99302.84;5113407;28;20557;-72
2022/11/06 06:25:31;;;;;;;99.80;52.40;;;;;;;12.18;86.53;99286.06;5113823;28;20689;-72
2022/11/06 06:27:58;;;;;;;89.87;52.10;;;;;;;12.22;86.01;99302.41;5113147;28;20193;-73
2022/11/06 06:30:26;;;;;;;94.67;52.57;;;;;;;12.28;86.33;99305.06;5096841;28;20731;-78
2022/11/06 06:32:53;;;;;;;93.20;53.00;;;;;;;12.41;86.25;99312.19;5092738;28;20202;-72
2022/11/06 06:35:20;;;;;;;83.93;50.67;;;;;;;12.43;85.60;99312.78;5092628;28;20225;-70
2022/11/06 06:37:52;;;;;;;85.10;48.80;;;;;;;12.42;84.95;99305.81;5092314;28;20223;-73
2022/11/06 06:40:19;;;;;;;81.13;51.10;;;;;;;12.43;85.24;99315.44;5091114;28;20284;-72
2022/11/06 06:42:45;;;;;;;81.30;50.40;;;;;;;12.55;85.42;99322.56;5091305;28;20190;-72
2022/11/06 06:45:12;;;;;;;89.97;52.50;;;;;;;12.52;85.78;99304.34;5092854;28;20235;-72
2022/11/06 06:47:40;;;;;;;88.87;54.00;;;;;;;12.71;84.89;99331.91;5092861;28;20658;-73
2022/11/06 06:50:08;;;;;;;91.90;54.73;;;;;;;12.76;85.12;99324.91;5092400;28;20247;-73
2022/11/06 06:52:35;;;;;;;85.30;53.40;;;;;;;12.84;84.04;99327.31;5092714;28;20191;-72
2022/11/06 06:55:01;;;;;;;83.93;52.20;;;;;;;12.92;84.34;99324.41;5092567;28;20195;-72
2022/11/06 06:57:28;;;;;;;84.47;49.90;;;;;;;13.04;84.04;99336.03;5094077;28;20224;-73
2022/11/06 06:59:55;;;;;;;73.83;47.43;;;;;;;13.08;83.70;99329.25;5119304;27;20193;-75
2022/11/06 07:02:21;;;;;;;86.27;49.27;;;;;;;13.15;83.54;99342.53;5121625;27;20186;-74
2022/11/06 07:04:49;;;;;;;82.13;47.93;;;;;;;13.28;83.17;99343.22;5131428;27;20190;-74
2022/11/06 07:07:16;;;;;;;87.60;48.27;;;;;;;13.43;83.97;99346.41;5113795;27;20823;-78
2022/11/06 07:09:43;;;;;;;78.70;48.20;;;;;;;13.49;82.82;99350.88;5110770;28;20199;-75
2022/11/06 07:12:10;;;;;;;73.17;45.63;;;;;;;13.51;82.44;99356.81;5111045;28;20187;-73
2022/11/06 07:14:36;;;;;;;68.43;44.57;;;;;;;13.50;82.52;99363.19;5112109;28;20259;-75
2022/11/06 07:17:03;;;;;;;79.23;45.70;;;;;;;13.56;82.05;99340.94;5110112;28;20214;-73
2022/11/06 07:19:29;;;;;;;66.17;42.80;;;;;;;13.73;83.67;99347.34;5099562;28;20662;-75
2022/11/06 07:21:58;;;;;;;70.80;42.87;;;;;;;13.87;81.57;99356.06;5097322;28;20621;-73
2022/11/06 07:24:24;;;;;;;68.37;40.37;;;;;;;13.87;81.15;99359.56;5102184;28;20206;-71
2022/11/06 07:26:51;;;;;;;70.43;40.87;;;;;;;13.94;82.25;99349.66;5101324;28;20194;-72
2022/11/06 07:29:18;;;;;;;67.10;39.57;;;;;;;14.02;81.54;99341.34;5098822;28;20604;-77
2022/11/06 07:31:44;;;;;;;72.00;42.80;;;;;;;14.22;80.79;99352.63;5100488;28;20195;-73
2022/11/06 07:34:11;;;;;;;76.23;44.43;;;;;;;14.44;79.37;99359.19;5100509;28;20202;-76
2022/11/06 07:36:38;;;;;;;77.33;44.67;;;;;;;14.46;78.88;99370.44;5101763;28;20580;-74
2022/11/06 07:39:06;;;;;;;69.93;44.10;;;;;;;14.47;79.10;99361.41;5100623;28;20259;-74
2022/11/06 07:41:32;;;;;;;72.60;40.67;;;;;;;14.47;78.94;99355.25;5099987;28;20217;-74
2022/11/06 07:43:59;;;;;;;62.13;38.07;;;;;;;14.66;80.31;99348.84;5099133;28;20228;-73
2022/11/06 07:46:26;;;;;;;63.30;38.87;;;;;;;14.78;80.13;99358.53;5091760;28;20195;-74
2022/11/06 07:48:53;;;;;;;63.47;38.67;;;;;;;14.84;78.80;99357.66;5091144;28;20615;-74
2022/11/06 07:51:20;;;;;;;60.73;36.70;;;;;;;14.88;79.33;99358.81;5094292;28;20187;-74
2022/11/06 07:53:46;;;;;;;70.57;38.63;;;;;;;15.00;79.26;99362.31;5095684;28;20233;-79
2022/11/06 07:56:15;;;;;;;67.93;38.63;;;;;;;15.07;79.31;99365.72;5095393;28;20245;-73
2022/11/06 07:58:41;;;;;;;69.80;39.13;;;;;;;15.23;78.05;99375.78;5110169;28;20667;-71
2022/11/06 08:01:14;;;;;;;61.60;38.27;;;;;;;15.30;78.28;99373.00;5115695;28;20244;-74
2022/11/06 08:03:41;;;;;;;56.27;37.07;;;;;;;15.43;78.15;99379.03;5115747;28;20539;-72
2022/11/06 08:06:08;;;;;;;57.63;37.43;;;;;;;15.56;78.50;99389.50;5111404;28;20236;-72
2022/11/06 08:08:35;;;;;;;63.10;36.33;;;;;;;15.66;77.25;99389.78;5104783;28;20191;-72
2022/11/06 08:11:02;;;;;;;62.27;36.50;;;;;;;15.84;77.68;99392.34;5111326;28;20191;-67
2022/11/06 08:13:32;;;;;;;81.50;37.30;;;;;;;15.81;77.03;99403.50;5104376;28;20195;-69
2022/11/06 08:15:59;;;;;;;55.67;33.67;;;;;;;15.82;76.93;99399.78;5103925;27;20666;-71
2022/11/06 08:18:26;;;;;;;54.80;31.50;;;;;;;15.81;77.55;99408.06;5112655;28;20259;-69
2022/11/06 08:20:52;;;;;;;50.67;31.30;;;;;;;15.75;78.37;99412.50;5104333;28;20191;-68
2022/11/06 08:23:20;;;;;;;51.07;30.90;;;;;;;15.75;78.39;99409.81;5095420;28;20545;-68
2022/11/06 08:25:46;;;;;;;54.47;31.33;;;;;;;15.72;78.99;99415.63;5095225;28;20199;-68
2022/11/06 08:28:13;;;;;;;52.23;32.17;;;;;;;15.67;78.41;99418.19;5094504;28;20231;-68
2022/11/06 08:30:41;;;;;;;51.13;30.20;;;;;;;15.59;78.72;99421.19;5113412;28;20243;-68
2022/11/06 08:33:08;;;;;;;48.20;29.53;;;;;;;15.51;78.91;99424.19;5115100;28;20198;-69
2022/11/06 08:35:35;;;;;;;50.37;30.10;;;;;;;15.42;79.63;99435.47;5114907;28;20251;-68
2022/11/06 08:38:02;;;;;;;46.33;28.70;;;;;;;15.32;80.09;99435.97;5114944;28;20271;-68
2022/11/06 08:40:29;;;;;;;49.10;31.37;;;;;;;15.18;80.30;99442.56;5114894;28;20274;-69
2022/11/06 08:43:00;;;;;;;43.80;29.90;;;;;;;15.10;80.47;99432.19;5112168;28;20587;-68
2022/11/06 08:45:26;;;;;;;43.73;29.73;;;;;;;15.08;80.78;99436.13;5112759;28;20226;-70
2022/11/06 08:47:54;;;;;;;42.83;29.33;;;;;;;15.04;80.78;99430.38;5112644;28;20199;-69
2022/11/06 08:50:21;;;;;;;52.30;29.40;;;;;;;15.09;81.02;99422.53;5112596;28;20186;-69
2022/11/06 08:52:48;;;;;;;46.60;29.90;;;;;;;15.02;81.33;99419.13;5112550;28;20190;-69
2022/11/06 08:55:15;;;;;;;49.53;29.17;;;;;;;15.07;81.55;99421.91;5112470;28;20228;-70
2022/11/06 08:57:41;;;;;;;57.43;28.53;;;;;;;15.14;82.31;99411.94;5114708;28;20342;-69
2022/11/06 09:00:10;;;;;;;55.80;29.30;;;;;;;15.17;82.90;99422.22;5115042;28;20194;-69
2022/11/06 09:02:37;;;;;;;54.47;27.97;;;;;;;15.29;84.07;99415.03;5114852;28;20278;-69
2022/11/06 09:05:06;;;;;;;54.27;30.07;;;;;;;15.38;84.36;99412.88;5114548;28;20199;-68
2022/11/06 09:07:33;;;;;;;48.90;29.07;;;;;;;15.42;86.29;99420.22;5114456;28;20232;-70
2022/11/06 09:09:59;;;;;;;43.97;29.30;;;;;;;15.52;87.17;99409.75;5114898;28;20272;-68
2022/11/06 09:12:26;;;;;;;54.23;32.17;;;;;;;15.44;89.43;99412.75;5112922;28;20251;-68
2022/11/06 09:14:53;;;;;;;51.80;32.23;;;;;;;15.34;91.67;99417.88;5093408;28;20195;-68
2022/11/06 09:17:22;;;;;;;52.03;33.33;;;;;;;15.27;92.75;99435.00;5093978;28;20273;-68
2022/11/06 09:19:49;;;;;;;54.57;36.73;;;;;;;15.17;93.52;99443.63;5093725;28;20195;-68
2022/11/06 09:22:17;;;;;;;59.70;37.33;;;;;;;14.98;94.10;99443.84;5094150;28;20251;-68
2022/11/06 09:24:44;;;;;;;57.33;39.17;;;;;;;14.75;93.89;99441.88;5093951;28;20191;-68
2022/11/06 09:27:11;;;;;;;64.20;40.37;;;;;;;14.64;93.74;99426.59;5094396;28;20573;-67
2022/11/06 09:29:39;;;;;;;59.50;41.00;;;;;;;14.72;93.95;99407.56;5103716;28;20248;-68
2022/11/06 09:32:06;;;;;;;68.37;42.70;;;;;;;14.70;93.89;99382.13;5114773;28;20256;-68
2022/11/06 09:34:33;;;;;;;76.77;46.13;;;;;;;14.80;94.13;99382.38;5114140;28;20195;-68
2022/11/06 09:37:02;;;;;;;70.30;46.37;;;;;;;14.88;94.20;99400.78;5113910;28;20625;-68
2022/11/06 09:39:30;;;;;;;72.07;43.33;;;;;;;14.97;95.04;99427.00;5114359;28;20195;-70
2022/11/06 09:42:00;;;;;;;72.50;43.17;;;;;;;14.92;94.33;99408.16;5114150;28;20195;-68
2022/11/06 09:44:45;;;;;;;69.80;45.17;;;;;;;14.97;94.61;99389.56;5114065;28;20240;-68
2022/11/06 09:47:16;;;;;;;72.43;45.13;;;;;;;15.03;94.71;99393.97;5114474;28;20187;-68
2022/11/06 09:49:49;;;;;;;58.10;41.93;;;;;;;14.95;94.39;99396.97;5113638;28;20205;-71
2022/11/06 09:52:20;;;;;;;60.23;39.43;;;;;;;14.87;94.62;99402.63;5109192;28;20202;-69
2022/11/06 09:54:52;;;;;;;58.33;39.73;;;;;;;14.79;95.02;99413.63;5093166;28;20179;-69
2022/11/06 09:57:23;;;;;;;57.43;36.67;;;;;;;14.75;95.49;99417.81;5094541;28;20218;-69
2022/11/06 09:59:51;;;;;;;56.73;36.57;;;;;;;14.78;96.12;99422.72;5093920;28;20550;-68
2022/11/06 10:02:30;;;;;;;59.90;37.97;;;;;;;14.69;96.58;99412.53;5093431;28;20249;-68
2022/11/06 10:05:05;;;;;;;62.27;36.27;;;;;;;14.72;96.74;99422.78;5093075;28;20193;-68
2022/11/06 10:07:35;;;;;;;56.07;36.13;;;;;;;14.68;96.98;99422.44;5093098;28;20244;-68
2022/11/06 10:10:06;;;;;;;54.07;33.93;;;;;;;14.59;97.12;99418.41;5092372;28;20256;-69
2022/11/06 10:12:49;;;;;;;54.83;33.43;;;;;;;14.55;97.25;99425.22;5095606;28;20241;-67
2022/11/06 10:15:24;;;;;;;46.47;34.10;;;;;;;14.51;96.96;99421.41;5113254;28;20179;-71
2022/11/06 10:18:00;;;;;;;46.27;35.80;;;;;;;14.52;97.66;99422.19;5093361;28;20226;-68
2022/11/06 10:20:31;;;;;;;49.63;35.37;;;;;;;14.45;97.83;99422.28;5093254;28;20183;-69
2022/11/06 10:23:10;;;;;;;47.97;34.70;;;;;;;14.44;99.15;99419.81;5092748;28;20193;-68
2022/11/06 10:25:44;;;;;;;50.80;35.83;;;;;;;14.50;99.41;99403.72;5093102;28;20188;-68
2022/11/06 10:28:23;;;;;;;55.33;35.83;;;;;;;14.52;99.11;99398.97;5092693;28;20186;-68
2022/11/06 10:30:56;;;;;;;52.77;35.53;;;;;;;14.47;99.90;99401.50;5092639;28;20249;-68
2022/11/06 10:33:34;;;;;;;52.47;36.77;;;;;;;14.52;99.48;99404.31;5093185;28;20620;-68
2022/11/06 10:36:09;;;;;;;56.73;36.20;;;;;;;14.52;99.55;99400.81;5092463;28;20260;-68
2022/11/06 10:38:40;;;;;;;58.40;39.50;;;;;;;14.72;100.00;99394.22;5093003;28;20284;-69
2022/11/06 10:41:17;;;;;;;59.33;37.43;;;;;;;14.92;99.71;99393.94;5092451;28;20191;-69
2022/11/06 10:43:49;;;;;;;59.10;39.30;;;;;;;15.03;97.59;99399.34;5092400;28;20183;-69
2022/11/06 10:46:23;;;;;;;56.17;37.67;;;;;;;14.96;97.30;99398.59;5092997;28;20206;-69
2022/11/06 10:48:55;;;;;;;59.93;39.57;;;;;;;15.02;98.42;99397.72;5092560;28;20187;-69
2022/11/06 10:51:37;;;;;;;66.57;42.33;;;;;;;15.15;96.98;99400.19;5092338;28;20575;-69
2022/11/06 10:54:21;;;;;;;68.47;43.00;;;;;;;15.25;97.22;99405.00;5092071;28;20251;-69
2022/11/06 10:57:02;;;;;;;63.37;42.87;;;;;;;15.39;95.78;99399.25;5091760;28;20195;-69
2022/11/06 10:59:29;;;;;;;61.03;42.37;;;;;;;15.47;95.07;99390.91;5092082;28;20207;-69
2022/11/06 11:01:56;;;;;;;59.87;41.10;;;;;;;15.61;95.64;99389.63;5092966;28;20188;-69
2022/11/06 11:04:23;;;;;;;67.67;43.37;;;;;;;15.69;95.27;99394.66;5092399;28;20187;-69
2022/11/06 11:06:50;;;;;;;63.70;43.73;;;;;;;15.75;95.30;99393.75;5092514;28;20191;-69
2022/11/06 11:09:28;;;;;;;65.63;42.90;;;;;;;15.86;95.29;99384.88;5091939;28;20252;-68
2022/11/06 11:11:56;;;;;;;70.97;44.60;;;;;;;15.85;94.16;99388.63;5093121;28;20274;-69
2022/11/06 11:14:24;;;;;;;70.67;43.27;;;;;;;15.56;93.93;99362.75;5109733;28;20198;-68
2022/11/06 11:16:51;;;;;;;67.27;41.70;;;;;;;15.64;94.00;99383.81;5098894;28;20215;-69
2022/11/06 11:19:35;;;;;;;75.97;43.50;;;;;;;15.80;94.79;99385.00;5092070;28;20448;-69
2022/11/06 11:22:04;;;;;;;56.57;40.03;;;;;;;15.61;94.33;99376.25;5092863;28;20188;-69
2022/11/06 11:24:31;;;;;;;65.60;39.73;;;;;;;15.65;94.00;99374.75;5091623;28;20488;-69
2022/11/06 11:27:02;;;;;;;57.73;38.00;;;;;;;15.79;94.29;99367.31;5092107;28;20574;-68
2022/11/06 11:29:31;;;;;;;60.03;37.63;;;;;;;15.94;94.23;99371.13;5091558;28;20199;-69
2022/11/06 11:32:01;;;;;;;55.00;38.93;;;;;;;16.06;93.04;99373.00;5092273;28;20196;-69
2022/11/06 11:34:30;;;;;;;58.30;40.77;;;;;;;16.26;92.49;99357.38;5092749;28;20223;-68
2022/11/06 11:37:00;;;;;;;47.13;36.80;;;;;;;16.34;90.04;99365.06;5092854;28;20605;-67
2022/11/06 11:39:32;;;;;;;54.43;37.53;;;;;;;16.32;90.18;99364.47;5091559;28;20318;-67